createdAt,value
2023-01-18T00:05:50.985Z,6.29
2023-01-18T00:20:42.793Z,6.56
2023-01-18T00:35:32.963Z,6.73
2023-01-18T00:50:23.308Z,6.02
2023-01-18T01:05:38.972Z,5.18
2023-01-18T01:20:52.660Z,6.60
2023-01-18T01:35:48.375Z,5.48
2023-01-18T01:50:40.065Z,5.66
2023-01-18T02:05:30.909Z,6.13
2023-01-18T02:20:44.641Z,6.04
2023-01-18T02:35:46.152Z,7.07
2023-01-18T02:50:40.881Z,6.92
2023-01-18T03:05:31.784Z,8.70
2023-01-18T03:20:25.318Z,9.64
2023-01-18T03:35:14.109Z,8.67
2023-01-18T03:50:03.745Z,8.49
2023-01-18T04:04:55.219Z,7.62
2023-01-18T04:19:43.915Z,9.03
2023-01-18T04:34:33.982Z,8.68
2023-01-18T04:49:24.093Z,8.79
2023-01-18T05:04:13.975Z,7.56
2023-01-18T05:19:04.107Z,6.94
2023-01-18T05:33:53.934Z,5.20
2023-01-18T05:48:43.156Z,5.50
2023-01-18T06:03:32.791Z,6.10
2023-01-18T06:18:25.399Z,5.32
2023-01-18T06:33:17.808Z,5.73
2023-01-18T06:48:07.415Z,6.18
2023-01-18T07:02:58.503Z,6.22
2023-01-18T07:17:48.292Z,6.26
2023-01-18T07:32:39.143Z,8.11
2023-01-18T07:47:30.539Z,6.86
2023-01-18T08:02:21.087Z,10.71
2023-01-18T08:17:12.167Z,8.36
2023-01-18T08:32:02.558Z,7.44
2023-01-18T08:46:53.607Z,6.86
2023-01-18T09:01:44.995Z,8.76
2023-01-18T09:16:35.925Z,8.82
2023-01-18T09:31:26.047Z,9.42
2023-01-18T09:46:18.904Z,9.41
2023-01-18T10:01:17.347Z,8.88
2023-01-18T10:16:12.693Z,10.16
2023-01-18T10:31:22.009Z,7.43
2023-01-18T10:46:17.840Z,8.08
2023-01-18T11:01:08.933Z,3.94
2023-01-18T11:16:14.591Z,2.60
2023-01-18T11:31:15.994Z,2.80
2023-01-18T11:46:21.789Z,3.01
2023-01-18T12:01:17.177Z,2.34
2023-01-18T12:16:28.334Z,2.54
2023-01-18T12:31:33.781Z,2.81
2023-01-18T12:46:28.761Z,2.28
2023-01-18T13:01:19.760Z,2.64
2023-01-18T13:16:19.047Z,2.21
2023-01-18T13:31:13.358Z,2.17
2023-01-18T13:46:08.721Z,1.81
2023-01-18T14:01:05.849Z,2.24
2023-01-18T14:15:59.071Z,1.77
2023-01-18T14:30:50.101Z,2.00
2023-01-18T14:45:39.649Z,2.07
2023-01-18T15:00:29.140Z,2.19
2023-01-18T15:15:17.923Z,3.00
2023-01-18T15:30:08.788Z,2.13
2023-01-18T15:44:58.738Z,3.70
2023-01-18T15:59:48.690Z,4.10
2023-01-18T16:14:38.324Z,5.83
2023-01-18T16:29:28.301Z,6.91
2023-01-18T16:44:18.210Z,7.54
2023-01-18T16:59:20.435Z,7.23
2023-01-18T17:14:14.654Z,7.09
2023-01-18T17:29:03.661Z,8.04
2023-01-18T17:43:53.388Z,7.91
2023-01-18T17:58:42.649Z,7.31
2023-01-18T18:13:31.648Z,8.59
2023-01-18T18:28:21.698Z,7.68
2023-01-18T18:43:11.683Z,8.94
2023-01-18T18:58:01.734Z,8.59
2023-01-18T19:12:50.633Z,9.71
2023-01-18T19:27:43.935Z,10.47
2023-01-18T19:42:34.698Z,9.31
2023-01-18T19:57:23.741Z,9.32
2023-01-18T20:12:13.534Z,9.82
2023-01-18T20:27:15.042Z,12.29
2023-01-18T20:41:53.275Z,11.50
2023-01-18T20:56:44.376Z,12.50
2023-01-18T21:11:33.993Z,12.83
2023-01-18T21:41:43.703Z,12.16
2023-01-18T21:56:38.613Z,12.59
2023-01-18T22:11:31.916Z,12.23
2023-01-18T22:26:23.927Z,11.81
2023-01-18T22:41:12.916Z,12.77
2023-01-18T22:56:02.063Z,12.04
2023-01-18T23:10:57.132Z,12.42
2023-01-18T23:25:56.772Z,10.60
2023-01-18T23:41:09.284Z,11.27
2023-01-18T23:56:04.523Z,10.79
